createdAt,value
2017-01-04T00:00:04.563Z,971.72
2017-01-04T00:01:04.519Z,971.68
2017-01-04T00:02:04.477Z,971.67
2017-01-04T00:03:04.433Z,971.58
2017-01-04T00:04:04.389Z,971.6
2017-01-04T00:05:04.346Z,971.57
2017-01-04T00:06:04.305Z,971.58
2017-01-04T00:07:04.261Z,971.56
2017-01-04T00:08:04.215Z,971.57
2017-01-04T00:09:04.173Z,971.62
2017-01-04T00:10:04.129Z,971.62
2017-01-04T00:11:04.086Z,971.61
2017-01-04T00:12:04.041Z,971.63
2017-01-04T00:13:03.999Z,971.61
2017-01-04T00:14:03.955Z,971.59
2017-01-04T00:15:03.912Z,971.59
2017-01-04T00:16:03.870Z,971.56
2017-01-04T00:17:03.825Z,971.58
2017-01-04T00:18:03.782Z,971.51
2017-01-04T00:19:03.736Z,971.51
2017-01-04T00:20:03.696Z,971.48
2017-01-04T00:21:03.650Z,971.47
2017-01-04T00:22:03.606Z,971.44
2017-01-04T00:23:03.562Z,971.39
2017-01-04T00:24:03.519Z,971.38
2017-01-04T00:25:03.480Z,971.32
2017-01-04T00:26:03.430Z,971.29
2017-01-04T00:27:03.388Z,971.36
2017-01-04T00:28:03.345Z,971.3
2017-01-04T00:29:03.302Z,971.27
2017-01-04T00:30:03.257Z,971.28
2017-01-04T00:31:03.214Z,971.26
2017-01-04T00:32:03.171Z,971.32
2017-01-04T00:33:03.126Z,971.34
2017-01-04T00:34:03.081Z,971.35
2017-01-04T00:35:03.041Z,971.36
2017-01-04T00:36:02.996Z,971.37
2017-01-04T00:37:02.950Z,971.33
2017-01-04T00:38:02.906Z,971.28
2017-01-04T00:39:02.863Z,971.28
2017-01-04T00:40:02.820Z,971.3
2017-01-04T00:41:02.776Z,971.29
2017-01-04T00:42:02.736Z,971.27
2017-01-04T00:43:02.688Z,971.27
2017-01-04T00:44:02.645Z,971.29
2017-01-04T00:45:02.602Z,971.21
2017-01-04T00:46:02.559Z,971.21
2017-01-04T00:47:02.516Z,971.21
2017-01-04T00:48:02.470Z,971.18
2017-01-04T00:49:02.427Z,971.15
2017-01-04T00:50:02.385Z,971.07
2017-01-04T00:51:02.341Z,971.07
2017-01-04T00:52:02.296Z,971.08
2017-01-04T00:53:02.253Z,971.06
2017-01-04T00:54:02.210Z,971.09
2017-01-04T00:55:02.165Z,971.13
2017-01-04T00:56:02.124Z,971.15
2017-01-04T00:57:02.080Z,971.12
2017-01-04T00:58:02.036Z,971.11
2017-01-04T00:59:01.991Z,971.11
2017-01-04T01:00:01.948Z,971.08
2017-01-04T01:01:01.904Z,971.09
2017-01-04T01:02:01.860Z,971.09
2017-01-04T01:03:01.817Z,971.04
2017-01-04T01:04:01.773Z,970.98
2017-01-04T01:05:01.730Z,970.92
2017-01-04T01:06:01.686Z,970.88
2017-01-04T01:07:01.643Z,970.86
2017-01-04T01:08:01.601Z,970.91
2017-01-04T01:09:01.555Z,970.79
2017-01-04T01:10:01.512Z,970.8
2017-01-04T01:11:01.469Z,970.84
2017-01-04T01:12:01.427Z,970.88
2017-01-04T01:13:01.382Z,970.86
2017-01-04T01:14:01.338Z,970.82
2017-01-04T01:15:01.293Z,970.84
2017-01-04T01:16:01.249Z,970.83
2017-01-04T01:17:01.208Z,970.86
2017-01-04T01:18:01.162Z,970.82
2017-01-04T01:19:01.120Z,970.83
2017-01-04T01:20:01.076Z,970.86
2017-01-04T01:21:01.031Z,970.86
2017-01-04T01:22:00.997Z,970.88
2017-01-04T01:23:00.946Z,970.88
2017-01-04T01:24:00.901Z,970.85
2017-01-04T01:25:00.858Z,970.81
2017-01-04T01:26:00.813Z,970.79
2017-01-04T01:27:00.770Z,970.76
2017-01-04T01:28:00.725Z,970.71
2017-01-04T01:29:00.682Z,970.67
2017-01-04T01:30:00.639Z,970.69
2017-01-04T01:31:00.594Z,970.69
2017-01-04T01:32:00.553Z,970.67
2017-01-04T01:33:00.509Z,970.69
2017-01-04T01:34:00.466Z,970.66
2017-01-04T01:35:00.422Z,970.58
2017-01-04T01:36:00.378Z,970.59
2017-01-04T01:37:00.337Z,970.56
2017-01-04T01:38:00.298Z,970.56
2017-01-04T01:39:00.441Z,970.54
2017-01-04T01:40:00.372Z,970.53
2017-01-04T01:41:00.164Z,970.57
2017-01-04T01:42:00.118Z,970.52
2017-01-04T01:43:00.074Z,970.46
2017-01-04T01:44:00.033Z,970.48
2017-01-04T01:44:59.986Z,970.51
2017-01-04T01:45:59.943Z,970.5
2017-01-04T01:46:59.900Z,970.47
2017-01-04T01:47:59.857Z,970.55
2017-01-04T01:48:59.814Z,970.51
2017-01-04T01:49:59.767Z,970.55
2017-01-04T01:50:59.724Z,970.55
2017-01-04T01:51:59.681Z,970.55
2017-01-04T01:52:59.638Z,970.59
2017-01-04T01:53:59.593Z,970.63
2017-01-04T01:54:59.548Z,970.64
2017-01-04T01:55:59.506Z,970.65
2017-01-04T01:56:59.462Z,970.69
2017-01-04T01:57:59.426Z,970.66
2017-01-04T01:58:59.375Z,970.69
2017-01-04T01:59:59.331Z,970.66
2017-01-04T02:00:59.287Z,970.68
2017-01-04T02:01:59.244Z,970.68
2017-01-04T02:02:59.201Z,970.69
2017-01-04T02:03:59.157Z,970.68
2017-01-04T02:04:59.113Z,970.66
2017-01-04T02:05:59.070Z,970.63
2017-01-04T02:06:59.027Z,970.59
2017-01-04T02:07:58.982Z,970.62
2017-01-04T02:08:58.940Z,970.56
2017-01-04T02:09:58.894Z,970.53
2017-01-04T02:10:58.853Z,970.59
2017-01-04T02:11:58.808Z,970.59
2017-01-04T02:12:58.763Z,970.64
2017-01-04T02:13:58.722Z,970.62
2017-01-04T02:14:58.679Z,970.61
2017-01-04T02:15:58.633Z,970.57
2017-01-04T02:16:58.594Z,970.57
2017-01-04T02:17:58.547Z,970.59
2017-01-04T02:18:58.506Z,970.57
2017-01-04T02:19:58.461Z,970.63
2017-01-04T02:20:58.416Z,970.61
2017-01-04T02:21:58.373Z,970.64
2017-01-04T02:22:58.328Z,970.63
2017-01-04T02:23:58.285Z,970.62
2017-01-04T02:24:58.242Z,970.59
2017-01-04T02:25:58.198Z,970.56
2017-01-04T02:26:58.154Z,970.52
2017-01-04T02:27:58.133Z,970.49
2017-01-04T02:28:58.069Z,970.48
2017-01-04T02:29:58.025Z,970.48
2017-01-04T02:30:57.981Z,970.44
2017-01-04T02:31:57.937Z,970.4
2017-01-04T02:32:57.894Z,970.4
2017-01-04T02:33:57.850Z,970.32
2017-01-04T02:34:57.808Z,970.37
2017-01-04T02:35:57.765Z,970.36
2017-01-04T02:36:57.720Z,970.32
2017-01-04T02:37:57.676Z,970.36
2017-01-04T02:38:57.641Z,970.32
2017-01-04T02:39:57.597Z,970.35
2017-01-04T02:40:57.546Z,970.35
2017-01-04T02:41:57.501Z,970.36
2017-01-04T02:42:57.458Z,970.35
2017-01-04T02:43:57.415Z,970.37
2017-01-04T02:44:57.372Z,970.43
2017-01-04T02:45:57.328Z,970.39
2017-01-04T02:46:57.287Z,970.44
2017-01-04T02:47:57.242Z,970.41
2017-01-04T02:48:57.197Z,970.41
2017-01-04T02:49:57.154Z,970.36
2017-01-04T02:50:57.112Z,970.27
2017-01-04T02:51:57.068Z,970.31
2017-01-04T02:52:57.024Z,970.23
2017-01-04T02:53:56.982Z,970.2
2017-01-04T02:54:56.938Z,970.2
2017-01-04T02:55:56.893Z,970.17
2017-01-04T02:56:56.851Z,970.16
2017-01-04T02:57:56.807Z,970.17
2017-01-04T02:58:56.765Z,970.11
2017-01-04T02:59:56.719Z,970.11
2017-01-04T03:00:56.678Z,970.11
2017-01-04T03:01:56.633Z,970.13
2017-01-04T03:02:56.590Z,970.05
2017-01-04T03:03:56.548Z,970.09
2017-01-04T03:04:56.504Z,970.1
2017-01-04T03:05:56.460Z,970.08
2017-01-04T03:06:56.416Z,970.12
2017-01-04T03:07:56.375Z,970.14
2017-01-04T03:08:56.335Z,970.17
2017-01-04T03:09:56.290Z,970.2
2017-01-04T03:10:56.244Z,970.15
2017-01-04T03:11:56.200Z,970.18
2017-01-04T03:12:56.158Z,970.19
2017-01-04T03:13:56.113Z,970.18
2017-01-04T03:14:56.071Z,970.17
2017-01-04T03:15:56.027Z,970.21
2017-01-04T03:16:55.983Z,970.17
2017-01-04T03:17:55.940Z,970.2
2017-01-04T03:18:55.899Z,970.18
2017-01-04T03:19:55.853Z,970.14
2017-01-04T03:20:55.809Z,970.18
2017-01-04T03:21:55.769Z,970.19
2017-01-04T03:22:55.723Z,970.14
2017-01-04T03:23:55.679Z,970.1
2017-01-04T03:24:55.636Z,970.05
2017-01-04T03:25:55.594Z,970
2017-01-04T03:26:55.551Z,969.94
2017-01-04T03:27:55.509Z,969.86
2017-01-04T03:28:55.463Z,969.85
2017-01-04T03:29:55.421Z,969.85
2017-01-04T03:30:55.379Z,969.83
2017-01-04T03:31:55.333Z,969.84
2017-01-04T03:32:55.291Z,969.83
2017-01-04T03:33:55.248Z,969.88
2017-01-04T03:34:55.205Z,969.97
2017-01-04T03:35:55.160Z,969.95
2017-01-04T03:36:55.117Z,969.91
2017-01-04T03:37:55.081Z,969.92
2017-01-04T03:38:55.032Z,969.9
2017-01-04T03:39:54.987Z,969.95
2017-01-04T03:40:54.961Z,969.96
2017-01-04T03:41:54.901Z,969.99
2017-01-04T03:42:54.858Z,969.91
2017-01-04T03:43:54.815Z,969.94
2017-01-04T03:44:54.771Z,969.96
2017-01-04T03:45:54.728Z,969.9
2017-01-04T03:46:54.684Z,969.92
2017-01-04T03:47:54.646Z,969.93
2017-01-04T03:48:54.599Z,969.91
2017-01-04T03:49:54.556Z,969.85
2017-01-04T03:50:54.512Z,969.87
2017-01-04T03:51:54.469Z,969.88
2017-01-04T03:52:54.426Z,969.9
2017-01-04T03:53:54.386Z,969.98
2017-01-04T03:54:54.339Z,969.99
2017-01-04T03:55:54.299Z,969.98
2017-01-04T03:56:54.250Z,970.01
2017-01-04T03:57:54.214Z,970.03
2017-01-04T03:58:54.167Z,969.97
2017-01-04T03:59:54.128Z,969.98
2017-01-04T04:00:54.082Z,970
2017-01-04T04:01:54.036Z,970.01
2017-01-04T04:02:53.993Z,970.06
2017-01-04T04:03:53.952Z,970.1
2017-01-04T04:04:53.906Z,970.16
2017-01-04T04:05:53.864Z,970.15
2017-01-04T04:06:53.828Z,970.19
2017-01-04T04:07:53.778Z,970.2
2017-01-04T04:08:53.734Z,970.18
2017-01-04T04:09:53.691Z,970.13
2017-01-04T04:10:53.647Z,970.16
2017-01-04T04:11:53.604Z,970.15
2017-01-04T04:12:53.563Z,970.18
2017-01-04T04:13:53.518Z,970.17
2017-01-04T04:14:53.475Z,970.18
2017-01-04T04:15:53.432Z,970.16
2017-01-04T04:16:53.390Z,970.18
2017-01-04T04:17:53.356Z,970.22
2017-01-04T04:18:53.308Z,970.3
2017-01-04T04:19:53.259Z,970.3
2017-01-04T04:20:53.216Z,970.34
2017-01-04T04:21:53.171Z,970.32
2017-01-04T04:22:53.129Z,970.3
2017-01-04T04:23:53.086Z,970.28
2017-01-04T04:24:53.042Z,970.27
2017-01-04T04:25:53.000Z,970.25
2017-01-04T04:26:52.956Z,970.27
2017-01-04T04:27:52.913Z,970.33
2017-01-04T04:28:52.870Z,970.33
2017-01-04T04:29:52.828Z,970.3
2017-01-04T04:30:52.784Z,970.33
2017-01-04T04:31:52.740Z,970.3
2017-01-04T04:32:52.697Z,970.25
2017-01-04T04:33:52.654Z,970.29
2017-01-04T04:34:52.611Z,970.21
2017-01-04T04:35:52.568Z,970.21
2017-01-04T04:36:52.524Z,970.21
2017-01-04T04:37:52.483Z,970.2
2017-01-04T04:38:52.439Z,970.19
2017-01-04T04:39:52.396Z,970.11
2017-01-04T04:40:52.352Z,970.08
2017-01-04T04:41:52.307Z,970.05
2017-01-04T04:42:52.266Z,970.06
2017-01-04T04:43:52.223Z,970.03
2017-01-04T04:44:52.182Z,970.1
2017-01-04T04:45:52.140Z,970.1
2017-01-04T04:46:52.096Z,970.08
2017-01-04T04:47:52.049Z,970.09
2017-01-04T04:48:52.005Z,970.06
2017-01-04T04:49:51.963Z,970.07
2017-01-04T04:50:51.920Z,970.05
2017-01-04T04:51:51.881Z,969.99
2017-01-04T04:52:51.834Z,970.01
2017-01-04T04:53:51.791Z,969.99
2017-01-04T04:54:51.747Z,969.94
2017-01-04T04:55:51.703Z,969.89
2017-01-04T04:56:51.659Z,969.85
2017-01-04T04:57:51.616Z,969.85
2017-01-04T04:58:51.573Z,969.79
2017-01-04T04:59:51.529Z,969.72
2017-01-04T05:00:51.487Z,969.66
2017-01-04T05:01:51.443Z,969.65
2017-01-04T05:02:51.400Z,969.65
2017-01-04T05:03:51.357Z,969.59
2017-01-04T05:04:51.313Z,969.57
2017-01-04T05:05:51.272Z,969.46
2017-01-04T05:06:51.228Z,969.5
2017-01-04T05:07:51.188Z,969.51
2017-01-04T05:08:51.141Z,969.46
2017-01-04T05:09:51.099Z,969.41
2017-01-04T05:10:51.054Z,969.32
2017-01-04T05:11:51.013Z,969.31
2017-01-04T05:12:50.969Z,969.23
2017-01-04T05:13:50.925Z,969.2
2017-01-04T05:14:50.882Z,969.18
2017-01-04T05:15:50.839Z,969.18
2017-01-04T05:16:50.796Z,969.14
2017-01-04T05:17:50.757Z,969.13
2017-01-04T05:18:50.709Z,969.03
2017-01-04T05:19:50.666Z,969.02
2017-01-04T05:20:50.627Z,968.94
2017-01-04T05:21:50.581Z,968.9
2017-01-04T05:22:50.538Z,968.86
2017-01-04T05:23:50.494Z,968.84
2017-01-04T05:24:50.451Z,968.76
2017-01-04T05:25:50.407Z,968.79
2017-01-04T05:26:50.364Z,968.79
2017-01-04T05:27:50.320Z,968.72
2017-01-04T05:28:50.277Z,968.7
2017-01-04T05:29:50.233Z,968.72
2017-01-04T05:30:50.189Z,968.66
2017-01-04T05:31:50.149Z,968.63
2017-01-04T05:32:50.104Z,968.62
2017-01-04T05:33:50.062Z,968.67
2017-01-04T05:34:50.018Z,968.67
2017-01-04T05:35:49.976Z,968.63
2017-01-04T05:36:49.940Z,968.65
2017-01-04T05:37:49.898Z,968.68
2017-01-04T05:38:49.846Z,968.75
2017-01-04T05:39:49.801Z,968.74
2017-01-04T05:40:49.762Z,968.67
2017-01-04T05:41:49.714Z,968.76
2017-01-04T05:42:49.673Z,968.81
2017-01-04T05:43:49.628Z,968.84
2017-01-04T05:44:49.585Z,968.86
2017-01-04T05:45:49.541Z,968.93
2017-01-04T05:46:49.500Z,969
2017-01-04T05:47:49.463Z,969.11
2017-01-04T05:48:49.412Z,969.24
2017-01-04T05:49:49.368Z,969.39
2017-01-04T05:50:49.323Z,969.44
2017-01-04T05:51:49.279Z,969.52
2017-01-04T05:52:49.238Z,969.53
2017-01-04T05:53:49.195Z,969.54
2017-01-04T05:54:49.151Z,969.57
2017-01-04T05:55:49.108Z,969.53
2017-01-04T05:56:49.065Z,969.53
2017-01-04T05:57:49.022Z,969.46
2017-01-04T05:58:48.980Z,969.5
2017-01-04T05:59:48.935Z,969.52
2017-01-04T06:00:48.892Z,969.57
2017-01-04T06:01:48.849Z,969.54
2017-01-04T06:02:48.805Z,969.52
2017-01-04T06:03:48.760Z,969.53
2017-01-04T06:04:48.718Z,969.5
2017-01-04T06:05:48.675Z,969.51
2017-01-04T06:06:48.632Z,969.46
2017-01-04T06:07:48.589Z,969.46
2017-01-04T06:08:48.545Z,969.42
2017-01-04T06:09:48.502Z,969.42
2017-01-04T06:10:48.457Z,969.43
2017-01-04T06:11:48.415Z,969.48
2017-01-04T06:12:48.370Z,969.47
2017-01-04T06:13:48.327Z,969.55
2017-01-04T06:14:48.285Z,969.54
2017-01-04T06:15:48.240Z,969.53
2017-01-04T06:16:48.195Z,969.48
2017-01-04T06:17:48.154Z,969.49
2017-01-04T06:18:48.108Z,969.43
2017-01-04T06:19:48.069Z,969.39
2017-01-04T06:20:48.019Z,969.42
2017-01-04T06:21:47.983Z,969.33
2017-01-04T06:22:47.952Z,969.34
2017-01-04T06:23:47.895Z,969.34
2017-01-04T06:24:47.849Z,969.43
2017-01-04T06:25:47.806Z,969.38
2017-01-04T06:26:47.765Z,969.31
2017-01-04T06:27:47.721Z,969.32
2017-01-04T06:28:47.676Z,969.4
2017-01-04T06:29:47.634Z,969.37
2017-01-04T06:30:47.589Z,969.41
2017-01-04T06:31:47.544Z,969.36
2017-01-04T06:32:47.505Z,969.35
2017-01-04T06:33:47.459Z,969.34
2017-01-04T06:34:47.415Z,969.42
2017-01-04T06:35:47.373Z,969.41
2017-01-04T06:36:47.328Z,969.45
2017-01-04T06:37:47.285Z,969.5
2017-01-04T06:38:47.241Z,969.47
2017-01-04T06:39:47.197Z,969.42
2017-01-04T06:40:47.155Z,969.48
2017-01-04T06:41:47.125Z,969.41
2017-01-04T06:42:47.068Z,969.44
2017-01-04T06:43:47.025Z,969.41
2017-01-04T06:44:46.982Z,969.46
2017-01-04T06:45:46.945Z,969.4
2017-01-04T06:46:46.893Z,969.4
2017-01-04T06:47:46.852Z,969.34
2017-01-04T06:48:46.807Z,969.36
2017-01-04T06:49:46.765Z,969.34
2017-01-04T06:50:46.720Z,969.41
2017-01-04T06:51:46.678Z,969.44
2017-01-04T06:52:46.634Z,969.34
2017-01-04T06:53:46.592Z,969.35
2017-01-04T06:54:46.546Z,969.35
2017-01-04T06:55:46.504Z,969.4
2017-01-04T06:56:46.468Z,969.36
2017-01-04T06:57:46.416Z,969.37
2017-01-04T06:58:46.376Z,969.36
2017-01-04T06:59:46.330Z,969.35
2017-01-04T07:00:46.287Z,969.45
2017-01-04T07:01:46.244Z,969.43
2017-01-04T07:02:46.201Z,969.44
2017-01-04T07:03:46.156Z,969.43
2017-01-04T07:04:46.112Z,969.4
2017-01-04T07:05:46.073Z,969.38
2017-01-04T07:06:46.026Z,969.43
2017-01-04T07:07:45.982Z,969.42
2017-01-04T07:08:45.939Z,969.42
2017-01-04T07:09:45.897Z,969.41
2017-01-04T07:10:45.854Z,969.38
2017-01-04T07:11:45.809Z,969.3
2017-01-04T07:12:45.766Z,969.26
2017-01-04T07:13:45.723Z,969.27
2017-01-04T07:14:45.679Z,969.22
2017-01-04T07:15:45.635Z,969.19
2017-01-04T07:16:45.592Z,969.16
2017-01-04T07:17:45.558Z,969.09
2017-01-04T07:18:45.510Z,969.12
2017-01-04T07:19:45.462Z,969.11
2017-01-04T07:20:45.418Z,969.07
2017-01-04T07:21:45.376Z,969.12
2017-01-04T07:22:45.331Z,969.1
2017-01-04T07:23:45.288Z,969.07
2017-01-04T07:24:45.245Z,969.1
2017-01-04T07:25:45.201Z,969.03
2017-01-04T07:26:45.157Z,969.09
2017-01-04T07:27:45.115Z,969.07
2017-01-04T07:28:45.074Z,969.06
2017-01-04T07:29:45.027Z,969.02
2017-01-04T07:30:44.984Z,969.03
2017-01-04T07:31:44.939Z,968.99
2017-01-04T07:32:44.899Z,969
2017-01-04T07:33:44.854Z,968.97
2017-01-04T07:34:44.811Z,969.01
2017-01-04T07:35:44.769Z,968.96
2017-01-04T07:36:44.728Z,969
2017-01-04T07:37:44.681Z,969.01
2017-01-04T07:38:44.637Z,968.94
2017-01-04T07:39:44.595Z,968.88
2017-01-04T07:40:44.550Z,968.85
2017-01-04T07:41:44.510Z,968.82
2017-01-04T07:42:44.464Z,968.79
2017-01-04T07:43:44.421Z,968.79
2017-01-04T07:44:44.378Z,968.7
2017-01-04T07:45:44.334Z,968.64
2017-01-04T07:46:44.294Z,968.66
2017-01-04T07:47:44.245Z,968.61
2017-01-04T07:48:44.202Z,968.57
2017-01-04T07:49:44.162Z,968.65
2017-01-04T07:50:44.117Z,968.65
2017-01-04T07:51:44.074Z,968.59
2017-01-04T07:52:44.029Z,968.53
2017-01-04T07:53:43.987Z,968.6
2017-01-04T07:54:43.944Z,968.54
2017-01-04T07:55:43.900Z,968.59
2017-01-04T07:56:43.857Z,968.52
2017-01-04T07:57:43.815Z,968.5
2017-01-04T07:58:43.771Z,968.42
2017-01-04T07:59:43.730Z,968.43
2017-01-04T08:00:43.685Z,968.42
2017-01-04T08:01:43.642Z,968.43
2017-01-04T08:02:43.597Z,968.46
2017-01-04T08:03:43.554Z,968.47
2017-01-04T08:04:43.512Z,968.51
2017-01-04T08:05:43.468Z,968.53
2017-01-04T08:06:43.426Z,968.53
2017-01-04T08:07:43.381Z,968.49
2017-01-04T08:08:43.338Z,968.46
2017-01-04T08:09:43.294Z,968.43
2017-01-04T08:10:43.252Z,968.46
2017-01-04T08:11:43.210Z,968.42
2017-01-04T08:12:43.166Z,968.44
2017-01-04T08:13:43.121Z,968.41
2017-01-04T08:14:43.080Z,968.4
2017-01-04T08:15:43.038Z,968.39
2017-01-04T08:16:42.992Z,968.35
2017-01-04T08:17:42.949Z,968.32
2017-01-04T08:18:42.908Z,968.3
2017-01-04T08:19:42.865Z,968.31
2017-01-04T08:20:42.822Z,968.3
2017-01-04T08:21:42.778Z,968.28
2017-01-04T08:22:42.735Z,968.26
2017-01-04T08:23:42.694Z,968.25
2017-01-04T08:24:42.649Z,968.32
2017-01-04T08:25:42.614Z,968.26
2017-01-04T08:26:42.563Z,968.29
2017-01-04T08:27:42.522Z,968.21
2017-01-04T08:28:42.478Z,968.24
2017-01-04T08:29:42.435Z,968.22
2017-01-04T08:30:42.396Z,968.26
2017-01-04T08:31:42.349Z,968.25
2017-01-04T08:32:42.307Z,968.36
2017-01-04T08:33:42.265Z,968.33
2017-01-04T08:34:42.227Z,968.3
2017-01-04T08:35:42.177Z,968.35
2017-01-04T08:36:42.135Z,968.37
2017-01-04T08:37:42.094Z,968.33
2017-01-04T08:38:42.051Z,968.26
2017-01-04T08:39:42.007Z,968.31
2017-01-04T08:40:41.963Z,968.21
2017-01-04T08:41:41.924Z,968.26
2017-01-04T08:42:41.878Z,968.2
2017-01-04T08:43:41.836Z,968.16
2017-01-04T08:44:41.794Z,968.07
2017-01-04T08:45:41.752Z,968.12
2017-01-04T08:46:41.710Z,968.09
2017-01-04T08:47:41.667Z,968.03
2017-01-04T08:48:41.628Z,968.02
2017-01-04T08:49:41.581Z,968
2017-01-04T08:50:41.540Z,968.02
2017-01-04T08:51:41.496Z,967.96
2017-01-04T08:52:41.454Z,967.94
2017-01-04T08:53:41.411Z,967.98
2017-01-04T08:54:41.369Z,967.96
2017-01-04T08:55:41.325Z,968
2017-01-04T08:56:41.284Z,967.93
2017-01-04T08:57:41.242Z,967.95
2017-01-04T08:58:41.199Z,968.01
2017-01-04T08:59:41.157Z,968.01
2017-01-04T09:00:41.114Z,968
2017-01-04T09:01:41.072Z,967.98
2017-01-04T09:02:41.031Z,967.99
2017-01-04T09:03:40.988Z,967.99
2017-01-04T09:04:40.944Z,968.04
2017-01-04T09:05:40.902Z,968.05
2017-01-04T09:06:40.860Z,968.02
2017-01-04T09:07:40.820Z,967.91
2017-01-04T09:08:40.776Z,968.01
2017-01-04T09:09:40.732Z,967.99
2017-01-04T09:10:40.689Z,967.96
2017-01-04T09:11:40.647Z,968.03
2017-01-04T09:12:40.604Z,968.01
2017-01-04T09:13:40.562Z,967.98
2017-01-04T09:14:40.519Z,967.99
2017-01-04T09:15:40.476Z,968.02
2017-01-04T09:16:40.437Z,968.08
2017-01-04T09:17:40.392Z,967.96
2017-01-04T09:18:40.349Z,967.98
2017-01-04T09:19:40.308Z,967.92
2017-01-04T09:20:40.266Z,967.93
2017-01-04T09:21:40.224Z,967.89
2017-01-04T09:22:40.181Z,967.88
2017-01-04T09:23:40.141Z,967.8
2017-01-04T09:24:40.097Z,967.79
2017-01-04T09:25:40.054Z,967.87
2017-01-04T09:26:40.009Z,967.76
2017-01-04T09:27:39.971Z,967.76
2017-01-04T09:28:39.926Z,967.76
2017-01-04T09:29:39.885Z,967.72
2017-01-04T09:30:39.842Z,967.76
2017-01-04T09:31:39.799Z,967.7
2017-01-04T09:32:39.757Z,967.77
2017-01-04T09:33:39.714Z,967.74
2017-01-04T09:34:39.672Z,967.84
2017-01-04T09:35:39.630Z,967.86
2017-01-04T09:36:39.588Z,967.86
2017-01-04T09:37:39.544Z,967.9
2017-01-04T09:38:39.502Z,967.95
2017-01-04T09:39:39.459Z,967.96
2017-01-04T09:40:39.417Z,967.97
2017-01-04T09:41:39.375Z,967.89
2017-01-04T09:42:39.332Z,967.8
2017-01-04T09:43:39.290Z,967.95
2017-01-04T09:44:39.247Z,967.98
2017-01-04T09:45:39.204Z,967.96
2017-01-04T09:46:39.163Z,968.04
2017-01-04T09:47:39.120Z,967.94
2017-01-04T09:48:39.078Z,967.98
2017-01-04T09:49:39.034Z,967.9
2017-01-04T09:50:38.992Z,967.9
2017-01-04T09:51:38.950Z,967.81
2017-01-04T09:52:38.907Z,967.84
2017-01-04T09:53:38.865Z,967.83
2017-01-04T09:54:38.824Z,967.79
2017-01-04T09:55:38.780Z,967.79
2017-01-04T09:56:38.739Z,967.66
2017-01-04T09:57:38.695Z,967.71
2017-01-04T09:58:38.655Z,967.68
2017-01-04T09:59:38.610Z,967.55
2017-01-04T10:00:38.574Z,967.62
2017-01-04T10:01:38.526Z,967.61
2017-01-04T10:02:38.482Z,967.56
2017-01-04T10:03:38.440Z,967.59
2017-01-04T10:04:38.400Z,967.47
2017-01-04T10:05:38.357Z,967.53
2017-01-04T10:06:38.312Z,967.62
2017-01-04T10:07:38.271Z,967.63
2017-01-04T10:08:38.228Z,967.64
2017-01-04T10:09:38.186Z,967.65
2017-01-04T10:10:38.142Z,967.66
2017-01-04T10:11:38.100Z,967.61
2017-01-04T10:12:38.058Z,967.53
2017-01-04T10:13:38.015Z,967.66
2017-01-04T10:14:37.975Z,967.57
2017-01-04T10:15:37.932Z,967.62
2017-01-04T10:16:37.889Z,967.61
2017-01-04T10:17:37.846Z,967.58
2017-01-04T10:18:37.805Z,967.54
2017-01-04T10:19:37.760Z,967.47
2017-01-04T10:20:37.722Z,967.43
2017-01-04T10:21:37.675Z,967.56
2017-01-04T10:22:37.634Z,967.52
2017-01-04T10:23:37.593Z,967.49
2017-01-04T10:24:37.549Z,967.39
2017-01-04T10:25:37.506Z,967.47
2017-01-04T10:26:37.466Z,967.45
2017-01-04T10:27:37.423Z,967.35
2017-01-04T10:28:37.380Z,967.41
2017-01-04T10:29:37.342Z,967.37
2017-01-04T10:30:37.294Z,967.41
2017-01-04T10:31:37.264Z,967.31
2017-01-04T10:32:37.209Z,967.35
2017-01-04T10:33:37.167Z,967.33
2017-01-04T10:34:37.124Z,967.32
2017-01-04T10:35:37.082Z,967.3
2017-01-04T10:36:37.040Z,967.26
2017-01-04T10:37:36.998Z,967.23
2017-01-04T10:38:36.956Z,967.23
2017-01-04T10:39:36.912Z,967.26
2017-01-04T10:40:36.871Z,967.25
2017-01-04T10:41:36.828Z,967.28
2017-01-04T10:42:36.787Z,967.26
2017-01-04T10:43:36.743Z,967.31
2017-01-04T10:44:36.700Z,967.29
2017-01-04T10:45:36.658Z,967.33
2017-01-04T10:46:36.616Z,967.33
2017-01-04T10:47:36.574Z,967.26
2017-01-04T10:48:36.534Z,967.26
2017-01-04T10:49:36.490Z,967.27
2017-01-04T10:50:36.446Z,967.22
2017-01-04T10:51:36.403Z,967.2
2017-01-04T10:52:36.361Z,967.27
2017-01-04T10:53:36.318Z,967.26
2017-01-04T10:54:36.276Z,967.25
2017-01-04T10:55:36.234Z,967.26
2017-01-04T10:56:36.192Z,967.29
2017-01-04T10:57:36.148Z,967.33
2017-01-04T10:58:36.106Z,967.24
2017-01-04T10:59:36.067Z,967.2
2017-01-04T11:00:36.022Z,967.13
2017-01-04T11:01:35.979Z,967.18
2017-01-04T11:02:35.938Z,967.18
2017-01-04T11:03:35.894Z,967.16
2017-01-04T11:04:35.852Z,967.12
2017-01-04T11:05:35.814Z,967.14
2017-01-04T11:06:35.769Z,967.19
2017-01-04T11:07:35.724Z,967.16
2017-01-04T11:08:35.684Z,967.14
2017-01-04T11:09:35.640Z,967.15
2017-01-04T11:10:35.598Z,967.2
2017-01-04T11:11:35.565Z,967.18
2017-01-04T11:12:35.518Z,967.22
2017-01-04T11:13:35.472Z,967.17
2017-01-04T11:14:35.429Z,967.21
2017-01-04T11:15:35.384Z,967.21
2017-01-04T11:16:35.343Z,967.16
2017-01-04T11:17:35.302Z,967.22
2017-01-04T11:18:35.262Z,967.19
2017-01-04T11:19:35.216Z,967.21
2017-01-04T11:20:35.174Z,967.14
2017-01-04T11:21:35.134Z,967.2
2017-01-04T11:22:35.090Z,967.1
2017-01-04T11:23:35.047Z,967.03
2017-01-04T11:24:35.004Z,967.05
2017-01-04T11:25:34.963Z,967
2017-01-04T11:26:34.920Z,967.01
2017-01-04T11:27:34.878Z,967.07
2017-01-04T11:28:34.835Z,967.03
2017-01-04T11:29:34.792Z,966.98
2017-01-04T11:30:34.750Z,967.03
2017-01-04T11:31:34.710Z,966.98
2017-01-04T11:32:34.667Z,966.99
2017-01-04T11:33:34.624Z,966.97
2017-01-04T11:34:34.581Z,966.93
2017-01-04T11:35:34.542Z,966.87
2017-01-04T11:36:34.499Z,966.9
2017-01-04T11:37:34.456Z,966.92
2017-01-04T11:38:34.413Z,966.91
2017-01-04T11:39:34.372Z,966.9
2017-01-04T11:40:34.329Z,966.91
2017-01-04T11:41:34.285Z,966.89
2017-01-04T11:42:34.245Z,966.88
2017-01-04T11:43:34.202Z,966.84
2017-01-04T11:44:34.160Z,966.83
2017-01-04T11:45:34.117Z,966.77
2017-01-04T11:46:34.075Z,966.76
2017-01-04T11:47:34.035Z,966.72
2017-01-04T11:48:33.991Z,966.74
2017-01-04T11:49:33.949Z,966.72
2017-01-04T11:50:33.909Z,966.73
2017-01-04T11:51:33.865Z,966.75
2017-01-04T11:52:33.823Z,966.77
2017-01-04T11:53:33.780Z,966.69
2017-01-04T11:54:33.738Z,966.76
2017-01-04T11:55:33.698Z,966.73
2017-01-04T11:56:33.655Z,966.66
2017-01-04T11:57:33.617Z,966.6
2017-01-04T11:58:33.571Z,966.66
2017-01-04T11:59:33.529Z,966.6
2017-01-04T12:00:33.487Z,966.63
2017-01-04T12:01:33.445Z,966.58
2017-01-04T12:02:33.402Z,966.53
2017-01-04T12:03:33.361Z,966.55
2017-01-04T12:04:33.321Z,966.5
2017-01-04T12:05:33.275Z,966.43
2017-01-04T12:06:33.234Z,966.36
2017-01-04T12:07:33.192Z,966.34
2017-01-04T12:08:33.151Z,966.23
2017-01-04T12:09:33.109Z,966.28
2017-01-04T12:10:33.065Z,966.16
2017-01-04T12:11:33.025Z,966.23
2017-01-04T12:12:32.983Z,966.12
2017-01-04T12:13:32.941Z,966.11
2017-01-04T12:14:32.900Z,966.12
2017-01-04T12:15:32.857Z,966
2017-01-04T12:16:32.811Z,966.01
2017-01-04T12:17:32.776Z,966.1
2017-01-04T12:18:32.733Z,965.98
2017-01-04T12:19:32.691Z,965.98
2017-01-04T12:20:32.656Z,966
2017-01-04T12:21:32.607Z,965.97
2017-01-04T12:22:32.565Z,965.99
2017-01-04T12:23:32.523Z,966.04
2017-01-04T12:24:32.481Z,965.98
2017-01-04T12:25:32.439Z,965.98
2017-01-04T12:26:32.398Z,965.98
2017-01-04T12:27:32.381Z,966.02
2017-01-04T12:28:32.317Z,965.91
2017-01-04T12:29:32.273Z,965.99
2017-01-04T12:30:32.233Z,965.96